< < Back
Terminal Aerodrome Forecast


Current Version              Previous Versions:   1  2  3  4  5  6  7  8  9  

Terminal Aerodrome Forecast

050
FTUS42 KMLB 211000 AAB
TAFMCO
TAF AMD
KMCO 211042Z 2111/2206 35004KT P6SM BKN008
      TEMPO 2111/2112 4SM BR OVC005
     FM211300 VRB03KT P6SM FEW025 BKN250
     FM211800 18004KT P6SM VCSH SCT030 BKN100
     FM220100 18003KT P6SM FEW035 BKN120=

Latest METAR

690
SAUS70 KWBC 211600 RRC
MTRMCO
METAR KMCO 211553Z 36003KT 10SM SCT023 BKN085 BKN250 BKN300 29/22 A3002
RMK AO2 SLP164 T02890222


USA.gov is the U.S. government's official web portal to all federal, state and local government web resources and services.